sensor_id;sensor_type;location;lat;lon;timestamp;P1;durP1;ratioP1;P2;durP2;ratioP2
1507;SDS011;745;48.586;10.032;2023-01-01T00:01:54;6.30;;;5.07;;
1507;SDS011;745;48.586;10.032;2023-01-01T00:06:24;7.33;;;6.47;;
1507;SDS011;745;48.586;10.032;2023-01-01T00:10:59;9.30;;;7.30;;
1507;SDS011;745;48.586;10.032;2023-01-01T00:15:30;7.70;;;6.60;;
1507;SDS011;745;48.586;10.032;2023-01-01T00:20:01;7.83;;;6.30;;
1507;SDS011;745;48.586;10.032;2023-01-01T00:24:31;6.30;;;5.70;;
1507;SDS011;745;48.586;10.032;2023-01-01T00:29:02;6.00;;;5.40;;
1507;SDS011;745;48.586;10.032;2023-01-01T00:33:33;5.20;;;4.70;;
1507;SDS011;745;48.586;10.032;2023-01-01T00:38:03;6.87;;;5.33;;
1507;SDS011;745;48.586;10.032;2023-01-01T00:42:34;6.30;;;5.70;;
1507;SDS011;745;48.586;10.032;2023-01-01T00:47:04;8.80;;;7.67;;
1507;SDS011;745;48.586;10.032;2023-01-01T00:51:35;8.93;;;7.97;;
1507;SDS011;745;48.586;10.032;2023-01-01T00:56:05;9.63;;;8.40;;
1507;SDS011;745;48.586;10.032;2023-01-01T01:00:36;8.80;;;7.90;;
1507;SDS011;745;48.586;10.032;2023-01-01T01:05:07;9.27;;;8.00;;
1507;SDS011;745;48.586;10.032;2023-01-01T01:09:37;8.43;;;7.57;;
1507;SDS011;745;48.586;10.032;2023-01-01T01:14:08;8.40;;;7.50;;
1507;SDS011;745;48.586;10.032;2023-01-01T01:18:38;8.10;;;6.80;;
1507;SDS011;745;48.586;10.032;2023-01-01T01:23:09;8.80;;;7.80;;
1507;SDS011;745;48.586;10.032;2023-01-01T01:27:39;8.00;;;6.60;;
1507;SDS011;745;48.586;10.032;2023-01-01T01:32:10;9.13;;;8.07;;
1507;SDS011;745;48.586;10.032;2023-01-01T01:36:41;7.30;;;6.50;;
1507;SDS011;745;48.586;10.032;2023-01-01T01:41:15;7.20;;;6.50;;
1507;SDS011;745;48.586;10.032;2023-01-01T01:45:47;6.67;;;6.07;;
1507;SDS011;745;48.586;10.032;2023-01-01T01:54:48;8.20;;;6.60;;
1507;SDS011;745;48.586;10.032;2023-01-01T01:59:19;10.73;;;7.73;;
1507;SDS011;745;48.586;10.032;2023-01-01T02:03:56;11.73;;;9.37;;
1507;SDS011;745;48.586;10.032;2023-01-01T02:08:28;12.77;;;10.10;;
1507;SDS011;745;48.586;10.032;2023-01-01T02:12:59;16.20;;;10.80;;
1507;SDS011;745;48.586;10.032;2023-01-01T02:17:33;23.20;;;15.47;;
1507;SDS011;745;48.586;10.032;2023-01-01T02:32:22;11.27;;;9.40;;
1507;SDS011;745;48.586;10.032;2023-01-01T02:36:55;10.93;;;8.73;;
1507;SDS011;745;48.586;10.032;2023-01-01T02:41:30;12.00;;;8.90;;
1507;SDS011;745;48.586;10.032;2023-01-01T02:46:05;10.70;;;8.53;;
1507;SDS011;745;48.586;10.032;2023-01-01T02:50:36;11.57;;;8.37;;
1507;SDS011;745;48.586;10.032;2023-01-01T02:55:15;12.30;;;9.70;;
1507;SDS011;745;48.586;10.032;2023-01-01T03:04:51;8.30;;;7.00;;
1507;SDS011;745;48.586;10.032;2023-01-01T03:14:45;10.47;;;8.07;;
1507;SDS011;745;48.586;10.032;2023-01-01T03:19:23;8.27;;;5.70;;
1507;SDS011;745;48.586;10.032;2023-01-01T03:23:55;9.13;;;6.47;;
1507;SDS011;745;48.586;10.032;2023-01-01T03:28:27;8.03;;;6.43;;
1507;SDS011;745;48.586;10.032;2023-01-01T03:33:10;7.00;;;5.67;;
1507;SDS011;745;48.586;10.032;2023-01-01T03:37:43;8.93;;;6.27;;
1507;SDS011;745;48.586;10.032;2023-01-01T03:47:00;6.33;;;5.53;;
1507;SDS011;745;48.586;10.032;2023-01-01T03:56:27;8.20;;;6.27;;
1507;SDS011;745;48.586;10.032;2023-01-01T04:01:08;6.60;;;5.97;;
1507;SDS011;745;48.586;10.032;2023-01-01T04:05:41;8.50;;;6.67;;
1507;SDS011;745;48.586;10.032;2023-01-01T04:10:12;7.93;;;6.40;;
1507;SDS011;745;48.586;10.032;2023-01-01T04:14:48;7.60;;;6.60;;
1507;SDS011;745;48.586;10.032;2023-01-01T04:19:19;8.63;;;6.80;;
1507;SDS011;745;48.586;10.032;2023-01-01T04:23:49;9.70;;;7.20;;
1507;SDS011;745;48.586;10.032;2023-01-01T04:28:19;8.67;;;7.07;;
1507;SDS011;745;48.586;10.032;2023-01-01T04:32:50;7.10;;;6.30;;
1507;SDS011;745;48.586;10.032;2023-01-01T04:37:20;8.60;;;6.87;;
1507;SDS011;745;48.586;10.032;2023-01-01T04:41:50;7.90;;;6.50;;
1507;SDS011;745;48.586;10.032;2023-01-01T04:46:21;8.13;;;6.97;;
1507;SDS011;745;48.586;10.032;2023-01-01T04:50:55;7.50;;;5.60;;
1507;SDS011;745;48.586;10.032;2023-01-01T04:55:27;10.00;;;7.70;;
1507;SDS011;745;48.586;10.032;2023-01-01T04:59:57;9.27;;;7.30;;
1507;SDS011;745;48.586;10.032;2023-01-01T05:04:28;8.87;;;7.50;;
1507;SDS011;745;48.586;10.032;2023-01-01T05:08:58;9.80;;;8.40;;
1507;SDS011;745;48.586;10.032;2023-01-01T05:13:30;10.83;;;8.73;;
1507;SDS011;745;48.586;10.032;2023-01-01T05:18:01;10.63;;;8.00;;
1507;SDS011;745;48.586;10.032;2023-01-01T05:22:31;13.57;;;7.90;;
1507;SDS011;745;48.586;10.032;2023-01-01T05:27:02;11.03;;;8.40;;
1507;SDS011;745;48.586;10.032;2023-01-01T05:31:33;13.40;;;9.03;;
1507;SDS011;745;48.586;10.032;2023-01-01T05:36:05;8.97;;;7.43;;
1507;SDS011;745;48.586;10.032;2023-01-01T05:40:37;8.57;;;7.67;;
1507;SDS011;745;48.586;10.032;2023-01-01T05:45:09;10.70;;;7.43;;
1507;SDS011;745;48.586;10.032;2023-01-01T05:49:39;8.60;;;6.90;;
1507;SDS011;745;48.586;10.032;2023-01-01T05:54:10;7.60;;;5.97;;
1507;SDS011;745;48.586;10.032;2023-01-01T05:58:40;5.97;;;5.20;;
1507;SDS011;745;48.586;10.032;2023-01-01T06:03:11;6.87;;;5.20;;
1507;SDS011;745;48.586;10.032;2023-01-01T06:07:42;8.20;;;6.17;;
1507;SDS011;745;48.586;10.032;2023-01-01T06:12:12;7.03;;;6.33;;
1507;SDS011;745;48.586;10.032;2023-01-01T06:16:42;5.33;;;4.80;;
1507;SDS011;745;48.586;10.032;2023-01-01T06:21:14;7.23;;;5.20;;
1507;SDS011;745;48.586;10.032;2023-01-01T06:25:46;8.33;;;6.50;;
1507;SDS011;745;48.586;10.032;2023-01-01T06:30:16;8.30;;;6.23;;
1507;SDS011;745;48.586;10.032;2023-01-01T06:34:46;6.60;;;5.50;;
1507;SDS011;745;48.586;10.032;2023-01-01T06:39:17;10.77;;;5.70;;
1507;SDS011;745;48.586;10.032;2023-01-01T06:43:47;6.70;;;5.90;;
1507;SDS011;745;48.586;10.032;2023-01-01T06:48:18;6.10;;;5.50;;
1507;SDS011;745;48.586;10.032;2023-01-01T06:52:48;8.97;;;5.67;;
1507;SDS011;745;48.586;10.032;2023-01-01T06:57:18;6.40;;;5.50;;
1507;SDS011;745;48.586;10.032;2023-01-01T07:01:49;7.23;;;5.80;;
1507;SDS011;745;48.586;10.032;2023-01-01T07:06:19;5.87;;;5.03;;
1507;SDS011;745;48.586;10.032;2023-01-01T07:10:50;8.07;;;5.73;;
1507;SDS011;745;48.586;10.032;2023-01-01T07:15:20;6.40;;;5.00;;
1507;SDS011;745;48.586;10.032;2023-01-01T07:19:50;6.33;;;5.43;;
1507;SDS011;745;48.586;10.032;2023-01-01T07:24:21;7.80;;;6.80;;
1507;SDS011;745;48.586;10.032;2023-01-01T07:28:51;6.03;;;5.23;;
1507;SDS011;745;48.586;10.032;2023-01-01T07:33:22;6.60;;;5.93;;
1507;SDS011;745;48.586;10.032;2023-01-01T07:37:53;7.80;;;6.17;;
1507;SDS011;745;48.586;10.032;2023-01-01T07:42:23;6.90;;;6.07;;
1507;SDS011;745;48.586;10.032;2023-01-01T07:47:00;10.13;;;6.57;;
1507;SDS011;745;48.586;10.032;2023-01-01T07:51:33;6.60;;;5.50;;
1507;SDS011;745;48.586;10.032;2023-01-01T07:56:04;10.20;;;5.73;;
1507;SDS011;745;48.586;10.032;2023-01-01T08:00:35;5.97;;;5.07;;
1507;SDS011;745;48.586;10.032;2023-01-01T08:05:05;6.43;;;5.37;;
1507;SDS011;745;48.586;10.032;2023-01-01T08:09:36;5.53;;;4.97;;
1507;SDS011;745;48.586;10.032;2023-01-01T08:14:06;9.20;;;5.33;;
1507;SDS011;745;48.586;10.032;2023-01-01T08:18:36;6.73;;;5.40;;
1507;SDS011;745;48.586;10.032;2023-01-01T08:23:07;7.70;;;5.17;;
1507;SDS011;745;48.586;10.032;2023-01-01T08:27:37;5.40;;;4.83;;
1507;SDS011;745;48.586;10.032;2023-01-01T08:32:07;7.50;;;5.10;;
1507;SDS011;745;48.586;10.032;2023-01-01T08:36:38;4.77;;;4.37;;
1507;SDS011;745;48.586;10.032;2023-01-01T08:41:10;6.00;;;4.67;;
1507;SDS011;745;48.586;10.032;2023-01-01T08:45:40;7.17;;;5.33;;
1507;SDS011;745;48.586;10.032;2023-01-01T08:50:11;7.03;;;4.97;;
1507;SDS011;745;48.586;10.032;2023-01-01T08:54:41;7.50;;;5.57;;
1507;SDS011;745;48.586;10.032;2023-01-01T08:59:12;7.27;;;5.47;;
1507;SDS011;745;48.586;10.032;2023-01-01T09:03:42;5.70;;;4.60;;
1507;SDS011;745;48.586;10.032;2023-01-01T09:08:13;4.57;;;4.17;;
1507;SDS011;745;48.586;10.032;2023-01-01T09:12:44;7.07;;;5.53;;
1507;SDS011;745;48.586;10.032;2023-01-01T09:17:14;6.40;;;5.70;;
1507;SDS011;745;48.586;10.032;2023-01-01T09:21:45;7.77;;;6.20;;
1507;SDS011;745;48.586;10.032;2023-01-01T09:26:16;8.23;;;6.43;;
1507;SDS011;745;48.586;10.032;2023-01-01T09:30:46;6.90;;;5.27;;
1507;SDS011;745;48.586;10.032;2023-01-01T09:35:17;5.30;;;4.80;;
1507;SDS011;745;48.586;10.032;2023-01-01T09:39:47;5.13;;;4.60;;
1507;SDS011;745;48.586;10.032;2023-01-01T09:44:28;7.50;;;4.90;;
1507;SDS011;745;48.586;10.032;2023-01-01T09:49:24;4.90;;;4.40;;
1507;SDS011;745;48.586;10.032;2023-01-01T09:59:02;5.20;;;4.70;;
1507;SDS011;745;48.586;10.032;2023-01-01T10:08:20;5.50;;;4.60;;
1507;SDS011;745;48.586;10.032;2023-01-01T10:17:44;5.27;;;4.77;;
1507;SDS011;745;48.586;10.032;2023-01-01T10:22:20;6.07;;;5.30;;
1507;SDS011;745;48.586;10.032;2023-01-01T10:26:53;6.23;;;5.27;;
1507;SDS011;745;48.586;10.032;2023-01-01T10:31:32;6.30;;;5.30;;
1507;SDS011;745;48.586;10.032;2023-01-01T10:36:07;7.37;;;5.20;;
1507;SDS011;745;48.586;10.032;2023-01-01T10:40:40;6.47;;;4.50;;
1507;SDS011;745;48.586;10.032;2023-01-01T10:45:11;5.40;;;4.90;;
1507;SDS011;745;48.586;10.032;2023-01-01T10:54:32;4.30;;;3.73;;
1507;SDS011;745;48.586;10.032;2023-01-01T10:59:07;4.23;;;3.83;;
1507;SDS011;745;48.586;10.032;2023-01-01T11:08:38;5.57;;;4.07;;
1507;SDS011;745;48.586;10.032;2023-01-01T11:13:16;7.10;;;5.40;;
1507;SDS011;745;48.586;10.032;2023-01-01T11:17:48;5.87;;;4.53;;
1507;SDS011;745;48.586;10.032;2023-01-01T11:27:12;5.53;;;3.90;;
1507;SDS011;745;48.586;10.032;2023-01-01T11:31:46;3.70;;;3.40;;
1507;SDS011;745;48.586;10.032;2023-01-01T11:36:21;5.40;;;4.40;;
1507;SDS011;745;48.586;10.032;2023-01-01T11:40:53;4.10;;;3.53;;
1507;SDS011;745;48.586;10.032;2023-01-01T11:45:26;3.70;;;3.30;;
1507;SDS011;745;48.586;10.032;2023-01-01T11:54:45;5.83;;;4.20;;
1507;SDS011;745;48.586;10.032;2023-01-01T11:59:16;6.20;;;4.57;;
1507;SDS011;745;48.586;10.032;2023-01-01T12:03:56;5.87;;;4.03;;
1507;SDS011;745;48.586;10.032;2023-01-01T12:08:42;4.90;;;3.47;;
1507;SDS011;745;48.586;10.032;2023-01-01T12:13:18;4.00;;;3.60;;
1507;SDS011;745;48.586;10.032;2023-01-01T12:22:30;3.63;;;3.03;;
1507;SDS011;745;48.586;10.032;2023-01-01T12:27:08;4.40;;;3.07;;
1507;SDS011;745;48.586;10.032;2023-01-01T12:31:49;5.23;;;3.40;;
1507;SDS011;745;48.586;10.032;2023-01-01T12:36:56;3.90;;;3.47;;
1507;SDS011;745;48.586;10.032;2023-01-01T12:41:51;4.03;;;2.90;;
1507;SDS011;745;48.586;10.032;2023-01-01T12:46:32;3.40;;;2.87;;
1507;SDS011;745;48.586;10.032;2023-01-01T12:51:16;3.10;;;2.80;;
1507;SDS011;745;48.586;10.032;2023-01-01T12:56:31;3.80;;;3.00;;
1507;SDS011;745;48.586;10.032;2023-01-01T13:01:13;3.03;;;2.73;;
1507;SDS011;745;48.586;10.032;2023-01-01T13:05:48;2.83;;;2.50;;
1507;SDS011;745;48.586;10.032;2023-01-01T13:15:33;3.00;;;2.70;;
1507;SDS011;745;48.586;10.032;2023-01-01T13:20:16;3.03;;;2.70;;
1507;SDS011;745;48.586;10.032;2023-01-01T13:25:14;3.30;;;3.00;;
1507;SDS011;745;48.586;10.032;2023-01-01T13:29:48;2.83;;;2.53;;
1507;SDS011;745;48.586;10.032;2023-01-01T13:38:59;2.73;;;2.40;;
1507;SDS011;745;48.586;10.032;2023-01-01T13:43:30;4.03;;;2.83;;
1507;SDS011;745;48.586;10.032;2023-01-01T14:03:01;4.13;;;3.40;;
1507;SDS011;745;48.586;10.032;2023-01-01T14:07:45;3.90;;;3.50;;
1507;SDS011;745;48.586;10.032;2023-01-01T14:12:19;3.23;;;2.93;;
1507;SDS011;745;48.586;10.032;2023-01-01T14:16:51;4.83;;;3.30;;
1507;SDS011;745;48.586;10.032;2023-01-01T14:21:25;3.30;;;3.00;;
1507;SDS011;745;48.586;10.032;2023-01-01T14:25:57;3.20;;;2.90;;
1507;SDS011;745;48.586;10.032;2023-01-01T14:30:30;3.53;;;3.20;;
1507;SDS011;745;48.586;10.032;2023-01-01T14:35:01;3.43;;;3.10;;
1507;SDS011;745;48.586;10.032;2023-01-01T14:39:33;2.63;;;2.43;;
1507;SDS011;745;48.586;10.032;2023-01-01T14:44:05;3.67;;;3.17;;
1507;SDS011;745;48.586;10.032;2023-01-01T14:48:41;3.63;;;2.97;;
1507;SDS011;745;48.586;10.032;2023-01-01T14:53:14;3.07;;;2.70;;
1507;SDS011;745;48.586;10.032;2023-01-01T14:57:53;2.90;;;2.70;;
1507;SDS011;745;48.586;10.032;2023-01-01T15:02:27;3.67;;;3.33;;
1507;SDS011;745;48.586;10.032;2023-01-01T15:07:02;3.87;;;3.20;;
1507;SDS011;745;48.586;10.032;2023-01-01T15:11:32;3.50;;;3.20;;
1507;SDS011;745;48.586;10.032;2023-01-01T15:16:16;3.90;;;3.50;;
1507;SDS011;745;48.586;10.032;2023-01-01T15:20:52;4.13;;;2.97;;
1507;SDS011;745;48.586;10.032;2023-01-01T15:25:22;3.77;;;3.23;;
1507;SDS011;745;48.586;10.032;2023-01-01T15:29:53;2.73;;;2.43;;
1507;SDS011;745;48.586;10.032;2023-01-01T15:34:28;2.60;;;2.40;;
1507;SDS011;745;48.586;10.032;2023-01-01T15:39:08;2.53;;;2.33;;
1507;SDS011;745;48.586;10.032;2023-01-01T15:43:42;2.97;;;2.67;;
1507;SDS011;745;48.586;10.032;2023-01-01T15:52:47;3.37;;;3.07;;
1507;SDS011;745;48.586;10.032;2023-01-01T15:57:21;5.40;;;4.60;;
1507;SDS011;745;48.586;10.032;2023-01-01T16:02:00;5.90;;;5.03;;
1507;SDS011;745;48.586;10.032;2023-01-01T16:06:32;4.87;;;3.97;;
1507;SDS011;745;48.586;10.032;2023-01-01T16:11:03;5.60;;;4.23;;
1507;SDS011;745;48.586;10.032;2023-01-01T16:15:34;5.40;;;4.50;;
1507;SDS011;745;48.586;10.032;2023-01-01T16:20:05;4.70;;;3.40;;
1507;SDS011;745;48.586;10.032;2023-01-01T16:24:36;3.97;;;3.57;;
1507;SDS011;745;48.586;10.032;2023-01-01T16:29:06;4.50;;;3.63;;
1507;SDS011;745;48.586;10.032;2023-01-01T16:33:36;4.30;;;3.90;;
1507;SDS011;745;48.586;10.032;2023-01-01T16:38:07;3.90;;;3.50;;
1507;SDS011;745;48.586;10.032;2023-01-01T16:42:37;4.33;;;3.93;;
1507;SDS011;745;48.586;10.032;2023-01-01T16:47:09;3.60;;;3.30;;
1507;SDS011;745;48.586;10.032;2023-01-01T16:51:39;3.57;;;3.27;;
1507;SDS011;745;48.586;10.032;2023-01-01T16:56:10;3.33;;;3.03;;
1507;SDS011;745;48.586;10.032;2023-01-01T17:00:41;3.43;;;3.13;;
1507;SDS011;745;48.586;10.032;2023-01-01T17:05:11;4.07;;;3.67;;
1507;SDS011;745;48.586;10.032;2023-01-01T17:09:42;3.60;;;3.30;;
1507;SDS011;745;48.586;10.032;2023-01-01T17:14:12;3.23;;;2.93;;
1507;SDS011;745;48.586;10.032;2023-01-01T17:18:43;3.23;;;2.93;;
1507;SDS011;745;48.586;10.032;2023-01-01T17:23:18;3.30;;;3.00;;
1507;SDS011;745;48.586;10.032;2023-01-01T17:27:48;3.17;;;2.87;;
1507;SDS011;745;48.586;10.032;2023-01-01T17:32:19;3.20;;;2.90;;
1507;SDS011;745;48.586;10.032;2023-01-01T17:36:49;3.10;;;2.87;;
1507;SDS011;745;48.586;10.032;2023-01-01T17:41:19;3.23;;;2.93;;
1507;SDS011;745;48.586;10.032;2023-01-01T17:45:50;3.00;;;2.80;;
1507;SDS011;745;48.586;10.032;2023-01-01T17:50:20;3.00;;;2.33;;
1507;SDS011;745;48.586;10.032;2023-01-01T17:54:50;3.07;;;2.77;;
1507;SDS011;745;48.586;10.032;2023-01-01T17:59:21;4.10;;;3.60;;
1507;SDS011;745;48.586;10.032;2023-01-01T18:03:53;4.33;;;3.93;;
1507;SDS011;745;48.586;10.032;2023-01-01T18:08:25;3.63;;;3.30;;
1507;SDS011;745;48.586;10.032;2023-01-01T18:12:56;3.80;;;3.50;;
1507;SDS011;745;48.586;10.032;2023-01-01T18:17:27;4.53;;;4.10;;
1507;SDS011;745;48.586;10.032;2023-01-01T18:21:57;4.43;;;4.03;;
1507;SDS011;745;48.586;10.032;2023-01-01T18:26:28;5.50;;;5.00;;
1507;SDS011;745;48.586;10.032;2023-01-01T18:31:03;5.90;;;5.13;;
1507;SDS011;745;48.586;10.032;2023-01-01T18:35:34;7.43;;;6.43;;
1507;SDS011;745;48.586;10.032;2023-01-01T18:40:15;7.17;;;6.30;;
1507;SDS011;745;48.586;10.032;2023-01-01T18:44:46;8.33;;;7.43;;
1507;SDS011;745;48.586;10.032;2023-01-01T18:49:16;8.20;;;7.40;;
1507;SDS011;745;48.586;10.032;2023-01-01T18:53:47;11.23;;;8.80;;
1507;SDS011;745;48.586;10.032;2023-01-01T19:02:58;11.90;;;9.60;;
1507;SDS011;745;48.586;10.032;2023-01-01T19:07:30;12.30;;;9.13;;
1507;SDS011;745;48.586;10.032;2023-01-01T19:12:00;11.57;;;9.93;;
1507;SDS011;745;48.586;10.032;2023-01-01T19:16:33;11.10;;;9.63;;
1507;SDS011;745;48.586;10.032;2023-01-01T19:25:40;11.20;;;8.63;;
1507;SDS011;745;48.586;10.032;2023-01-01T19:30:18;9.90;;;7.60;;
1507;SDS011;745;48.586;10.032;2023-01-01T19:34:54;7.50;;;6.33;;
1507;SDS011;745;48.586;10.032;2023-01-01T19:39:25;8.43;;;6.00;;
1507;SDS011;745;48.586;10.032;2023-01-01T19:43:56;6.00;;;5.00;;
1507;SDS011;745;48.586;10.032;2023-01-01T19:48:27;6.50;;;5.83;;
1507;SDS011;745;48.586;10.032;2023-01-01T19:52:59;9.10;;;6.90;;
1507;SDS011;745;48.586;10.032;2023-01-01T19:57:30;9.20;;;7.23;;
1507;SDS011;745;48.586;10.032;2023-01-01T20:02:00;13.63;;;9.30;;
1507;SDS011;745;48.586;10.032;2023-01-01T20:06:31;9.60;;;7.10;;
1507;SDS011;745;48.586;10.032;2023-01-01T20:11:05;9.37;;;6.77;;
1507;SDS011;745;48.586;10.032;2023-01-01T20:15:36;5.53;;;4.83;;
1507;SDS011;745;48.586;10.032;2023-01-01T20:20:07;5.43;;;4.60;;
1507;SDS011;745;48.586;10.032;2023-01-01T20:24:39;5.37;;;4.87;;
1507;SDS011;745;48.586;10.032;2023-01-01T20:29:14;5.80;;;5.20;;
1507;SDS011;745;48.586;10.032;2023-01-01T20:33:51;4.83;;;4.33;;
1507;SDS011;745;48.586;10.032;2023-01-01T20:38:22;7.20;;;4.80;;
1507;SDS011;745;48.586;10.032;2023-01-01T20:42:53;7.40;;;5.20;;
1507;SDS011;745;48.586;10.032;2023-01-01T20:47:24;7.60;;;5.73;;
1507;SDS011;745;48.586;10.032;2023-01-01T20:51:55;8.10;;;5.57;;
1507;SDS011;745;48.586;10.032;2023-01-01T20:56:26;6.80;;;6.10;;
1507;SDS011;745;48.586;10.032;2023-01-01T21:00:57;7.33;;;5.70;;
1507;SDS011;745;48.586;10.032;2023-01-01T21:05:28;6.63;;;5.77;;
1507;SDS011;745;48.586;10.032;2023-01-01T21:09:59;7.63;;;6.17;;
1507;SDS011;745;48.586;10.032;2023-01-01T21:14:29;6.77;;;5.90;;
1507;SDS011;745;48.586;10.032;2023-01-01T21:19:02;6.50;;;5.80;;
1507;SDS011;745;48.586;10.032;2023-01-01T21:23:34;6.20;;;5.27;;
1507;SDS011;745;48.586;10.032;2023-01-01T21:28:08;6.37;;;5.53;;
1507;SDS011;745;48.586;10.032;2023-01-01T21:32:43;8.00;;;5.87;;
1507;SDS011;745;48.586;10.032;2023-01-01T21:42:22;8.90;;;6.23;;
1507;SDS011;745;48.586;10.032;2023-01-01T21:46:54;8.20;;;5.80;;
1507;SDS011;745;48.586;10.032;2023-01-01T21:56:26;6.07;;;5.17;;
1507;SDS011;745;48.586;10.032;2023-01-01T22:00:58;6.40;;;5.40;;
1507;SDS011;745;48.586;10.032;2023-01-01T22:05:29;7.57;;;5.70;;
1507;SDS011;745;48.586;10.032;2023-01-01T22:10:01;6.97;;;6.20;;
1507;SDS011;745;48.586;10.032;2023-01-01T22:14:45;8.07;;;6.03;;
1507;SDS011;745;48.586;10.032;2023-01-01T22:19:17;6.40;;;5.57;;
1507;SDS011;745;48.586;10.032;2023-01-01T22:23:48;4.77;;;4.20;;
1507;SDS011;745;48.586;10.032;2023-01-01T22:28:24;5.23;;;3.90;;
1507;SDS011;745;48.586;10.032;2023-01-01T22:32:57;4.33;;;3.93;;
1507;SDS011;745;48.586;10.032;2023-01-01T22:37:34;7.27;;;4.80;;
1507;SDS011;745;48.586;10.032;2023-01-01T22:42:08;4.80;;;4.17;;
1507;SDS011;745;48.586;10.032;2023-01-01T22:46:41;4.37;;;3.83;;
1507;SDS011;745;48.586;10.032;2023-01-01T22:51:19;4.30;;;3.90;;
1507;SDS011;745;48.586;10.032;2023-01-01T22:55:52;4.87;;;4.40;;
1507;SDS011;745;48.586;10.032;2023-01-01T23:00:22;4.20;;;3.80;;
1507;SDS011;745;48.586;10.032;2023-01-01T23:04:52;5.13;;;4.37;;
1507;SDS011;745;48.586;10.032;2023-01-01T23:09:22;5.83;;;4.60;;
1507;SDS011;745;48.586;10.032;2023-01-01T23:13:53;5.07;;;4.30;;
1507;SDS011;745;48.586;10.032;2023-01-01T23:18:42;5.50;;;4.97;;
1507;SDS011;745;48.586;10.032;2023-01-01T23:23:13;6.20;;;5.10;;
1507;SDS011;745;48.586;10.032;2023-01-01T23:27:43;5.33;;;4.83;;
1507;SDS011;745;48.586;10.032;2023-01-01T23:32:14;4.60;;;4.20;;
1507;SDS011;745;48.586;10.032;2023-01-01T23:36:44;4.27;;;3.67;;
1507;SDS011;745;48.586;10.032;2023-01-01T23:41:15;5.10;;;4.60;;
1507;SDS011;745;48.586;10.032;2023-01-01T23:45:45;6.17;;;5.10;;
1507;SDS011;745;48.586;10.032;2023-01-01T23:50:16;5.20;;;4.40;;
1507;SDS011;745;48.586;10.032;2023-01-01T23:54:47;4.53;;;3.80;;
1507;SDS011;745;48.586;10.032;2023-01-01T23:59:17;4.03;;;3.50;;
